This is the latest recevied weather packets stored in our database for station/object SP3VBV-2. If no packets are shown the sender has not sent any weather packets the latest 10 day(s).
| Time | Temp. | Humidity | Pressure | Rain* | Wind** | Luminosity | Snow |
|---|---|---|---|---|---|---|---|
| 1778009520 | 18.33° C | 44% | 1004.2 hPa | - | - | - | - |
| 1778008920 | 18.33° C | 44% | 1004.2 hPa | - | - | - | - |
| 1778008320 | 18.33° C | 43% | 1004.2 hPa | - | - | - | - |
| 1778007720 | 18.89° C | 44% | 1004.1 hPa | - | - | - | - |
| 1778007124 | 19.44° C | 44% | 1004 hPa | - | - | - | - |
| 1778006520 | 20° C | 40% | 1004 hPa | - | - | - | - |
| 1778005931 | 21.67° C | 35% | 1003.9 hPa | - | - | - | - |
| 1778005326 | 21.67° C | 34% | 1004 hPa | - | - | - | - |
| 1778004720 | 22.22° C | 34% | 1003.9 hPa | - | - | - | - |
| 1778004120 | 22.22° C | 34% | 1003.9 hPa | - | - | - | - |
| 1778002929 | 22.78° C | 34% | 1003.9 hPa | - | - | - | - |
| 1778002920 | 23.33° C | 32% | 1003.8 hPa | - | - | - | - |
| 1778002320 | 23.89° C | 31% | 1003.8 hPa | - | - | - | - |
| 1778001720 | 23.89° C | 31% | 1003.8 hPa | - | - | - | - |
| 1778001120 | 24.44° C | 30% | 1003.7 hPa | - | - | - | - |
| 1778000532 | 24.44° C | 27% | 1003.9 hPa | - | - | - | - |
| 1777999920 | 25° C | 27% | 1003.9 hPa | - | - | - | - |
| 1777999320 | 25° C | 27% | 1003.9 hPa | - | - | - | - |
| 1777998746 | 26.11° C | 28% | 1003.7 hPa | - | - | - | - |
| 1777997528 | 25.56° C | 29% | 1003.8 hPa | - | - | - | - |
| 1777996327 | 25° C | 29% | 1004 hPa | - | - | - | - |
| 1777995727 | 25.56° C | 29% | 1004 hPa | - | - | - | - |
| 1777995130 | 26.67° C | 29% | 1004 hPa | - | - | - | - |
| 1777994527 | 26.67° C | 29% | 1004 hPa | - | - | - | - |
| 1777993932 | 26.67° C | 30% | 1004.1 hPa | - | - | - | - |
* Rain since midnight (hover to see other rain measurements)
** Current wind speed in m/s (hover to see current wind gust speed)